Time;durP1;ratioP1;P1;durP2;ratioP2;P2;SDS_P1;SDS_P2;PMS_P1;PMS_P2;Temp;Humidity;BMP_temperature;BMP_pressure;BME280_temperature;BME280_humidity;BME280_pressure;Samples;Min_cycle;Max_cycle;Signal;HPM_P1;HPM_P2
2023/08/08 04:00:15;;;;;;;0.60;0.20;;;;;;;;;;6008196;23;20376;31
2023/08/08 04:02:45;;;;;;;0.60;0.10;;;14.00;99.90;;;;;;4912044;29;20528;-73
2023/08/08 04:05:13;;;;;;;0.60;0.20;;;14.00;99.90;;;;;;4914953;29;20542;-73
2023/08/08 04:07:41;;;;;;;0.60;0.20;;;14.10;99.90;;;;;;4914165;29;20495;-74
2023/08/08 04:10:09;;;;;;;0.60;0.10;;;14.20;99.90;;;;;;4914926;29;20891;-76
2023/08/08 04:12:37;;;;;;;0.70;0.30;;;14.20;99.90;;;;;;4895981;29;20575;-73
2023/08/08 04:15:05;;;;;;;0.60;0.20;;;14.10;99.90;;;;;;4896937;29;20464;-73
2023/08/08 04:17:35;;;;;;;0.60;0.20;;;14.10;99.90;;;;;;4897293;29;20504;-73
2023/08/08 04:20:05;;;;;;;0.60;0.20;;;13.90;99.90;;;;;;4900124;29;20461;-75
2023/08/08 04:22:33;;;;;;;0.60;0.10;;;13.90;99.90;;;;;;4899642;29;20505;-75
2023/08/08 04:25:01;;;;;;;0.60;0.10;;;14.00;99.90;;;;;;4898751;29;20544;-73
2023/08/08 04:27:29;;;;;;;0.60;0.10;;;14.10;99.90;;;;;;4899775;29;20482;-73
2023/08/08 04:29:56;;;;;;;0.60;0.20;;;14.10;99.90;;;;;;4899761;29;20543;-74
2023/08/08 04:32:24;;;;;;;0.60;0.10;;;14.20;99.90;;;;;;4898726;29;20522;-74
2023/08/08 04:34:53;;;;;;;1.07;0.80;;;14.10;99.90;;;;;;4898007;29;20460;-73
2023/08/08 04:37:21;;;;;;;0.60;0.20;;;14.10;99.90;;;;;;4896855;29;20478;-74
2023/08/08 04:39:49;;;;;;;0.60;0.10;;;14.00;99.90;;;;;;4899386;29;20858;-74
2023/08/08 04:42:17;;;;;;;1.30;1.07;;;14.10;99.90;;;;;;4899194;29;20808;-72
2023/08/08 04:44:45;;;;;;;0.60;0.10;;;14.00;99.90;;;;;;4900757;29;20545;-73
2023/08/08 04:47:13;;;;;;;0.60;0.10;;;14.10;99.90;;;;;;4902605;29;20465;-73
2023/08/08 04:49:40;;;;;;;0.60;0.23;;;14.20;99.90;;;;;;4902440;29;20929;-73
2023/08/08 04:52:10;;;;;;;0.60;0.20;;;14.10;99.90;;;;;;4899263;29;20509;-74
2023/08/08 04:54:38;;;;;;;0.60;0.10;;;14.00;99.90;;;;;;4899294;29;20505;-73
2023/08/08 04:57:06;;;;;;;0.60;0.20;;;14.10;99.90;;;;;;4897908;29;20901;-73
2023/08/08 04:59:34;;;;;;;0.60;0.10;;;14.00;99.90;;;;;;4898905;29;20457;-73
2023/08/08 05:02:02;;;;;;;0.60;0.10;;;14.00;99.90;;;;;;4898336;29;20480;-75
2023/08/08 05:04:30;;;;;;;0.60;0.20;;;14.00;99.90;;;;;;4899087;29;20465;-74
2023/08/08 05:06:58;;;;;;;0.60;0.10;;;14.00;99.90;;;;;;4898456;29;20551;-75
2023/08/08 05:09:27;;;;;;;0.60;0.10;;;14.00;99.90;;;;;;4898741;29;20557;-73
2023/08/08 05:11:55;;;;;;;0.60;0.10;;;14.10;99.90;;;;;;4898097;29;20560;-74
2023/08/08 05:14:23;;;;;;;0.60;0.10;;;14.00;99.90;;;;;;4899386;29;20902;-74
2023/08/08 05:16:51;;;;;;;0.60;0.20;;;13.90;99.90;;;;;;4899803;29;20453;-75
2023/08/08 05:19:19;;;;;;;0.60;0.10;;;13.90;99.90;;;;;;4897852;29;20570;-74
2023/08/08 05:21:47;;;;;;;0.60;0.10;;;13.90;99.90;;;;;;4898638;29;20944;-72
2023/08/08 05:24:17;;;;;;;0.60;0.10;;;14.00;99.90;;;;;;4898709;29;20463;-72
2023/08/08 05:26:46;;;;;;;0.60;0.10;;;14.00;99.90;;;;;;4899274;29;20455;-74
2023/08/08 05:29:14;;;;;;;0.60;0.10;;;14.00;99.90;;;;;;4897623;29;20519;-74
2023/08/08 05:31:42;;;;;;;0.93;0.70;;;13.90;99.90;;;;;;4897903;29;20494;-75
2023/08/08 05:34:10;;;;;;;0.60;0.30;;;13.90;99.90;;;;;;4898948;29;20571;-75
2023/08/08 05:36:37;;;;;;;0.60;0.10;;;14.00;99.90;;;;;;4897963;29;20496;-73
2023/08/08 05:39:06;;;;;;;0.60;0.20;;;13.90;99.90;;;;;;4897312;29;20559;-74
2023/08/08 05:41:34;;;;;;;0.70;0.30;;;14.00;99.90;;;;;;4897212;29;20574;-75
2023/08/08 05:44:04;;;;;;;0.80;0.37;;;14.00;99.90;;;;;;4896829;29;20449;-75
2023/08/08 05:46:32;;;;;;;0.70;0.30;;;13.90;99.90;;;;;;4897701;29;20946;-75
2023/08/08 05:49:01;;;;;;;0.60;0.20;;;14.00;99.90;;;;;;4898807;29;21005;-75
2023/08/08 05:51:29;;;;;;;0.60;0.10;;;14.10;99.90;;;;;;4900466;29;20464;-74
2023/08/08 05:53:57;;;;;;;0.60;0.10;;;14.10;99.90;;;;;;4900830;29;20479;-73
2023/08/08 05:56:29;;;;;;;1.23;0.97;;;14.30;99.90;;;;;;4900193;29;20459;-73
2023/08/08 05:58:57;;;;;;;0.60;0.10;;;14.40;99.90;;;;;;4900058;29;20491;-73
2023/08/08 06:01:26;;;;;;;0.60;0.10;;;14.60;99.90;;;;;;4899578;29;20489;-76
2023/08/08 06:03:54;;;;;;;0.60;0.10;;;14.60;99.90;;;;;;4899669;29;20443;-75
2023/08/08 06:06:22;;;;;;;0.60;0.10;;;14.60;99.90;;;;;;4896845;29;20456;-73
2023/08/08 06:08:50;;;;;;;0.60;0.10;;;14.60;99.90;;;;;;4897344;29;20507;-75
2023/08/08 06:11:18;;;;;;;0.60;0.20;;;14.60;99.90;;;;;;4897661;29;20561;-74
2023/08/08 06:13:45;;;;;;;0.60;0.20;;;14.70;99.90;;;;;;4897601;29;20493;-74
2023/08/08 06:16:13;;;;;;;0.70;0.40;;;14.70;99.90;;;;;;4898111;29;20450;-74
2023/08/08 06:18:42;;;;;;;0.60;0.20;;;14.70;99.90;;;;;;4899327;29;20463;-73
2023/08/08 06:21:10;;;;;;;0.60;0.10;;;14.80;99.90;;;;;;4900025;29;20551;-75
2023/08/08 06:23:38;;;;;;;0.60;0.10;;;14.80;99.90;;;;;;4899777;29;20451;-73
2023/08/08 06:26:06;;;;;;;0.70;0.20;;;14.90;99.90;;;;;;4899226;29;20976;-73
2023/08/08 06:28:34;;;;;;;0.60;0.10;;;15.00;99.90;;;;;;4898794;29;20460;-73
2023/08/08 06:31:03;;;;;;;1.30;1.20;;;15.10;99.90;;;;;;4898673;29;21195;-75
2023/08/08 06:33:30;;;;;;;0.60;0.40;;;15.00;99.90;;;;;;4898841;29;20495;-74
2023/08/08 06:36:00;;;;;;;0.80;0.33;;;15.00;99.90;;;;;;4898028;29;20502;-74
2023/08/08 06:38:28;;;;;;;0.60;0.30;;;15.00;99.90;;;;;;4898143;29;20459;-73
2023/08/08 06:40:57;;;;;;;0.60;0.10;;;15.00;99.90;;;;;;4897757;29;20477;-73
2023/08/08 06:43:25;;;;;;;0.60;0.20;;;12.00;99.90;;;;;;4897386;29;20503;-74
2023/08/08 06:45:52;;;;;;;3.50;0.77;;;15.10;99.90;;;;;;4896857;29;20454;-75
2023/08/08 06:48:21;;;;;;;0.60;0.10;;;15.20;99.90;;;;;;4896048;29;20459;-75
2023/08/08 06:50:48;;;;;;;0.60;0.10;;;15.40;99.90;;;;;;4896578;29;20477;-74
2023/08/08 06:53:18;;;;;;;0.60;0.10;;;15.50;99.90;;;;;;4896725;29;20524;-75
2023/08/08 06:55:46;;;;;;;1.47;0.30;;;15.50;99.90;;;;;;4896817;29;20535;-74
2023/08/08 06:58:14;;;;;;;0.80;0.50;;;15.50;99.90;;;;;;4896670;29;21022;-75
2023/08/08 07:00:41;;;;;;;0.70;0.40;;;15.60;99.90;;;;;;4896534;29;20492;-74
2023/08/08 07:03:09;;;;;;;0.60;0.10;;;15.60;99.90;;;;;;4897032;29;20547;-75
2023/08/08 07:05:37;;;;;;;0.60;0.10;;;15.70;99.90;;;;;;4896481;29;20455;-74
2023/08/08 07:08:06;;;;;;;0.60;0.10;;;15.80;99.90;;;;;;4896713;29;20455;-73
2023/08/08 07:10:35;;;;;;;0.60;0.10;;;15.80;99.90;;;;;;4896026;29;20528;-75
2023/08/08 07:13:03;;;;;;;0.73;0.40;;;;;;;;;;4897008;29;20523;-75
2023/08/08 07:15:31;;;;;;;1.00;0.87;;;16.00;99.90;;;;;;4897028;29;20456;-74
2023/08/08 07:18:00;;;;;;;0.60;0.10;;;16.00;99.90;;;;;;4896610;29;20448;-74
2023/08/08 07:20:29;;;;;;;0.70;0.50;;;16.00;99.90;;;;;;4896876;29;21033;-73
2023/08/08 07:22:56;;;;;;;0.63;0.20;;;16.00;99.90;;;;;;4897155;29;20482;-75
2023/08/08 07:25:24;;;;;;;0.60;0.20;;;16.00;99.90;;;;;;4897333;29;21028;-74
2023/08/08 07:27:54;;;;;;;0.60;0.40;;;16.10;99.90;;;;;;4896964;29;20516;-74
2023/08/08 07:30:22;;;;;;;0.60;0.20;;;16.10;99.90;;;;;;4897272;29;20461;-75
2023/08/08 07:32:50;;;;;;;0.60;0.30;;;16.30;99.90;;;;;;4897062;29;20549;-74
2023/08/08 07:35:18;;;;;;;6.23;0.60;;;16.40;99.90;;;;;;4896624;29;20496;-73
2023/08/08 07:37:45;;;;;;;0.60;0.10;;;16.40;99.90;;;;;;4897850;29;20523;-72
2023/08/08 07:40:17;;;;;;;0.70;0.30;;;16.50;99.90;;;;;;4898367;29;20540;-73
2023/08/08 07:42:46;;;;;;;0.70;0.20;;;16.60;99.90;;;;;;4902075;29;20476;-74
2023/08/08 07:45:16;;;;;;;0.60;0.10;;;16.70;99.90;;;;;;4905026;29;20454;-74
2023/08/08 07:47:44;;;;;;;0.70;0.30;;;16.80;99.90;;;;;;4905718;29;20463;-73
2023/08/08 07:50:12;;;;;;;0.70;0.40;;;16.80;99.90;;;;;;4897898;29;20460;-75
2023/08/08 07:52:41;;;;;;;0.60;0.20;;;16.80;99.90;;;;;;4897204;29;20457;-73
2023/08/08 07:55:09;;;;;;;0.80;0.43;;;16.90;99.90;;;;;;4899830;29;20548;-75
2023/08/08 07:57:37;;;;;;;0.80;0.20;;;17.00;99.90;;;;;;4900139;29;20501;-75
2023/08/08 08:00:11;;;;;;;0.60;0.10;;;17.00;98.30;;;;;;4900398;29;20528;-74
2023/08/08 08:02:40;;;;;;;0.60;0.30;;;17.00;97.20;;;;;;4899689;29;20476;-73
2023/08/08 08:05:09;;;;;;;0.60;0.10;;;17.00;97.50;;;;;;4900145;29;20508;-74
2023/08/08 08:07:38;;;;;;;0.87;0.60;;;17.10;98.80;;;;;;4900309;29;20448;-75
2023/08/08 08:10:08;;;;;;;0.60;0.10;;;17.20;99.90;;;;;;4901024;29;20457;-75
2023/08/08 08:12:37;;;;;;;1.57;1.00;;;17.30;99.90;;;;;;4898286;29;20511;-75
2023/08/08 08:15:06;;;;;;;0.60;0.10;;;17.50;97.30;;;;;;4893462;29;20576;-75
2023/08/08 08:17:34;;;;;;;0.60;0.10;;;17.60;95.10;;;;;;4900309;29;20485;-75
2023/08/08 08:20:10;;;;;;;0.70;0.50;;;17.70;90.20;;;;;;4902114;29;20517;-75
2023/08/08 08:22:39;;;;;;;0.60;0.10;;;17.50;71.00;;;;;;4900856;29;20890;-75
2023/08/08 08:25:09;;;;;;;0.70;0.40;;;17.60;67.00;;;;;;4901012;29;20456;-74
2023/08/08 08:27:37;;;;;;;0.60;0.20;;;17.60;68.60;;;;;;4899468;29;20480;-74
2023/08/08 08:30:06;;;;;;;0.60;0.10;;;17.60;57.30;;;;;;4900048;29;20464;-74
2023/08/08 08:32:34;;;;;;;0.60;0.10;;;17.70;52.30;;;;;;4900596;29;20460;-73
2023/08/08 08:35:06;;;;;;;0.60;0.10;;;17.70;53.30;;;;;;4895362;29;21014;-74
2023/08/08 08:37:34;;;;;;;0.80;0.60;;;17.90;53.10;;;;;;4899416;29;20445;-75
2023/08/08 08:40:04;;;;;;;0.60;0.10;;;18.00;49.30;;;;;;4899296;29;20445;-76
2023/08/08 08:42:33;;;;;;;0.60;0.10;;;18.00;38.80;;;;;;4899021;29;20558;-75
2023/08/08 08:45:04;;;;;;;0.73;0.40;;;18.20;43.00;;;;;;4898782;29;20442;-75
2023/08/08 08:47:34;;;;;;;0.70;0.30;;;18.20;38.60;;;;;;4899368;29;20455;-76
2023/08/08 08:50:04;;;;;;;0.60;0.30;;;18.00;33.10;;;;;;4899945;29;20807;-73
2023/08/08 08:52:32;;;;;;;0.60;0.10;;;18.00;34.00;;;;;;4899366;29;20502;-75
2023/08/08 08:55:01;;;;;;;5.00;0.40;;;18.00;29.60;;;;;;4899362;29;20510;-74
2023/08/08 08:57:29;;;;;;;0.60;0.10;;;18.10;33.20;;;;;;4899738;29;20873;-74
2023/08/08 08:59:57;;;;;;;0.60;0.10;;;18.20;32.30;;;;;;4898369;29;20461;-74
2023/08/08 09:02:25;;;;;;;0.90;0.80;;;18.20;30.60;;;;;;4900329;29;20915;-75
2023/08/08 09:04:54;;;;;;;2.43;0.50;;;18.10;27.30;;;;;;4899215;29;20456;-73
2023/08/08 09:07:25;;;;;;;2.70;1.50;;;18.20;30.40;;;;;;4899490;29;21057;-73
2023/08/08 09:09:53;;;;;;;0.60;0.20;;;18.40;32.20;;;;;;4899931;29;20472;-74
2023/08/08 09:12:24;;;;;;;0.80;0.30;;;18.40;31.30;;;;;;4899284;29;20500;-75
2023/08/08 09:14:56;;;;;;;0.80;0.40;;;18.50;27.00;;;;;;4898602;29;20485;-75
2023/08/08 09:17:26;;;;;;;0.60;0.20;;;18.60;28.30;;;;;;4898198;29;20461;-75
2023/08/08 09:20:14;;;;;;;0.83;0.37;;;18.60;25.60;;;;;;4898199;29;20449;-75
2023/08/08 09:22:43;;;;;;;2.97;0.27;;;18.40;26.40;;;;;;4897497;29;20453;-72
2023/08/08 09:25:11;;;;;;;1.07;0.40;;;18.40;25.70;;;;;;4897148;29;20588;-72
2023/08/08 09:27:42;;;;;;;2.03;0.30;;;18.40;25.70;;;;;;4897027;29;20449;-73
2023/08/08 09:30:11;;;;;;;0.80;0.30;;;;;;;;;;4897465;29;20579;-72
2023/08/08 09:32:39;;;;;;;0.60;0.10;;;18.50;26.40;;;;;;4897716;29;20822;-73
2023/08/08 09:35:09;;;;;;;0.60;0.30;;;18.60;26.40;;;;;;4879032;29;20549;-73
2023/08/08 09:37:37;;;;;;;1.57;0.70;;;18.70;23.10;;;;;;4887799;29;20461;-72
2023/08/08 09:40:09;;;;;;;0.60;0.20;;;18.70;24.60;;;;;;4897794;29;20453;-74
2023/08/08 09:42:41;;;;;;;0.70;0.30;;;18.50;23.00;;;;;;4896383;29;20858;-72
2023/08/08 09:45:10;;;;;;;0.60;0.20;;;18.50;26.70;;;;;;4899141;29;20927;-75
2023/08/08 09:47:39;;;;;;;0.60;0.30;;;18.50;27.00;;;;;;4897728;29;20484;-72
2023/08/08 09:50:08;;;;;;;0.60;0.20;;;18.60;27.20;;;;;;4898400;29;20454;-72
2023/08/08 09:52:38;;;;;;;1.47;0.77;;;18.60;25.70;;;;;;4899374;29;20473;-73
2023/08/08 09:55:08;;;;;;;0.93;0.60;;;18.50;27.90;;;;;;4897684;29;20575;-74
2023/08/08 09:57:39;;;;;;;0.60;0.10;;;18.70;29.70;;;;;;4897262;29;20464;-72
2023/08/08 10:00:15;;;;;;;0.60;0.20;;;19.00;31.00;;;;;;4897746;29;20508;-73
2023/08/08 10:02:45;;;;;;;0.60;0.10;;;19.00;27.60;;;;;;4898324;29;20990;-73
2023/08/08 10:05:14;;;;;;;0.60;0.20;;;19.10;25.50;;;;;;4896911;29;20826;-73
2023/08/08 10:07:42;;;;;;;1.37;0.77;;;19.10;25.80;;;;;;4897022;29;20540;-73
2023/08/08 10:10:12;;;;;;;0.70;0.30;;;19.10;26.70;;;;;;4896451;29;20489;-74
2023/08/08 10:12:41;;;;;;;0.77;0.57;;;19.00;25.40;;;;;;4897013;29;20456;-73
2023/08/08 10:15:10;;;;;;;0.70;0.20;;;19.20;26.00;;;;;;4895911;29;20576;-73
2023/08/08 10:17:39;;;;;;;0.63;0.23;;;19.20;26.30;;;;;;4896481;29;20450;-74
2023/08/08 10:20:11;;;;;;;0.70;0.43;;;19.40;23.50;;;;;;4898328;29;20556;-76
2023/08/08 10:22:44;;;;;;;0.90;0.50;;;19.30;15.00;;;;;;4898672;29;20484;-74
2023/08/08 10:25:20;;;;;;;2.00;1.13;;;19.40;18.00;;;;;;4898860;29;20955;-73
2023/08/08 10:27:48;;;;;;;0.70;0.30;;;;;;;;;;4899530;29;21026;-75
2023/08/08 10:30:16;;;;;;;0.60;0.17;;;19.60;22.10;;;;;;4899398;29;20489;-73
2023/08/08 10:32:46;;;;;;;0.60;0.17;;;19.60;16.70;;;;;;4899488;29;20998;-76
2023/08/08 10:35:14;;;;;;;1.00;0.57;;;19.80;12.40;;;;;;4898730;29;20620;-74
2023/08/08 10:37:53;;;;;;;1.37;0.80;;;19.90;7.10;;;;;;4898919;29;20446;-74
2023/08/08 10:40:23;;;;;;;0.80;0.53;;;19.80;3.60;;;;;;4900240;29;20469;-73
2023/08/08 10:42:53;;;;;;;1.57;1.47;;;19.90;3.60;;;;;;4900631;29;20474;-74
2023/08/08 10:45:21;;;;;;;3.23;0.80;;;;;;;;;;4902468;29;20477;-73
2023/08/08 10:47:49;;;;;;;0.60;0.17;;;20.10;1.00;;;;;;4902842;29;20544;-72
2023/08/08 10:50:23;;;;;;;0.90;0.30;;;20.20;1.00;;;;;;4902232;29;20458;-74
2023/08/08 10:52:54;;;;;;;0.60;0.10;;;20.20;1.00;;;;;;4898966;29;20445;-74
2023/08/08 10:55:26;;;;;;;0.60;0.20;;;20.40;1.00;;;;;;4897037;29;20512;-76
2023/08/08 10:57:59;;;;;;;0.60;0.20;;;20.50;1.00;;;;;;4897211;29;20529;-73
2023/08/08 11:00:29;;;;;;;0.90;0.50;;;20.50;1.00;;;;;;4896527;29;20490;-74
2023/08/08 11:02:58;;;;;;;0.60;0.20;;;20.50;1.00;;;;;;4898972;29;20454;-74
2023/08/08 11:05:29;;;;;;;0.60;0.20;;;20.40;1.00;;;;;;4901249;29;20886;-73
2023/08/08 11:07:58;;;;;;;1.20;0.77;;;20.40;4.50;;;;;;4898129;29;20464;-73
2023/08/08 11:10:30;;;;;;;0.60;0.30;;;20.50;1.00;;;;;;4899079;29;20540;-73
2023/08/08 11:13:00;;;;;;;0.60;0.13;;;20.70;1.00;;;;;;4900088;29;20460;-73
2023/08/08 11:15:28;;;;;;;1.10;0.80;;;20.50;1.00;;;;;;4900927;29;20478;-73
2023/08/08 11:17:57;;;;;;;2.43;1.50;;;20.40;1.00;;;;;;4898024;29;20454;-75
2023/08/08 11:20:26;;;;;;;0.70;0.37;;;20.30;1.00;;;;;;4896658;29;20512;-75
2023/08/08 11:22:54;;;;;;;0.93;0.43;;;20.20;1.00;;;;;;4896546;29;20461;-74
2023/08/08 11:25:23;;;;;;;0.60;0.20;;;20.10;1.00;;;;;;4896368;29;20459;-73
2023/08/08 11:27:53;;;;;;;0.70;0.30;;;20.10;1.00;;;;;;4897921;29;20517;-74
2023/08/08 11:30:22;;;;;;;0.60;0.20;;;20.30;1.00;;;;;;4900710;29;20491;-72
2023/08/08 11:32:51;;;;;;;0.60;0.20;;;20.40;1.00;;;;;;4900226;29;20462;-74
2023/08/08 11:35:23;;;;;;;0.80;0.30;;;20.40;1.00;;;;;;4901002;29;20549;-72
2023/08/08 11:37:53;;;;;;;1.33;0.73;;;20.30;1.00;;;;;;4901224;29;20548;-74
2023/08/08 11:40:23;;;;;;;0.70;0.40;;;20.20;1.00;;;;;;4902079;29;20469;-73
2023/08/08 11:42:53;;;;;;;0.80;0.37;;;20.10;1.00;;;;;;4901858;29;20885;-76
2023/08/08 11:45:21;;;;;;;0.90;0.80;;;20.10;1.00;;;;;;4900744;29;20488;-71
2023/08/08 11:47:49;;;;;;;1.20;0.53;;;20.20;1.00;;;;;;4900739;29;20490;-74
2023/08/08 11:50:22;;;;;;;0.60;0.20;;;20.20;1.00;;;;;;4901081;29;20504;-74
2023/08/08 11:52:52;;;;;;;0.80;0.40;;;20.20;1.00;;;;;;4900685;29;20450;-75
2023/08/08 11:55:22;;;;;;;0.60;0.20;;;20.40;1.00;;;;;;4899802;29;20455;-74
2023/08/08 11:57:50;;;;;;;1.50;0.50;;;20.50;1.00;;;;;;4900640;29;20560;-74
2023/08/08 12:00:20;;;;;;;1.23;0.77;;;20.40;1.00;;;;;;4901695;29;20514;-76
2023/08/08 12:02:48;;;;;;;2.10;0.40;;;20.40;1.00;;;;;;4901426;29;20456;-73
2023/08/08 12:05:16;;;;;;;0.60;0.20;;;20.40;1.00;;;;;;4900203;29;20449;-74
2023/08/08 12:07:45;;;;;;;1.07;0.50;;;20.60;1.00;;;;;;4899822;29;20437;-75
2023/08/08 12:10:17;;;;;;;0.60;0.20;;;20.80;1.00;;;;;;4903357;29;20829;-74
2023/08/08 12:12:45;;;;;;;0.67;0.20;;;20.90;1.00;;;;;;4901217;29;20458;-74
2023/08/08 12:15:13;;;;;;;3.30;0.90;;;21.00;1.00;;;;;;4902238;29;20532;-74
2023/08/08 12:17:45;;;;;;;1.10;0.60;;;21.00;1.00;;;;;;4902328;29;20764;-76
2023/08/08 12:20:13;;;;;;;0.90;0.20;;;;;;;;;;4900971;29;20482;-75
2023/08/08 12:22:41;;;;;;;0.60;0.10;;;21.00;1.00;;;;;;4903798;29;20522;-75
2023/08/08 12:25:09;;;;;;;0.60;0.10;;;21.30;1.00;;;;;;4900644;29;20476;-75
2023/08/08 12:27:38;;;;;;;0.90;0.80;;;21.20;1.00;;;;;;4900839;29;20779;-76
2023/08/08 12:30:08;;;;;;;0.70;0.33;;;21.20;1.00;;;;;;4900924;29;20450;-73
2023/08/08 12:32:35;;;;;;;0.70;0.40;;;21.00;1.00;;;;;;4900168;29;20462;-75
2023/08/08 12:35:06;;;;;;;1.47;0.53;;;20.90;1.00;;;;;;4899136;29;20451;-73
2023/08/08 12:37:34;;;;;;;1.33;0.87;;;20.70;1.00;;;;;;4900101;29;20483;-75
2023/08/08 12:40:02;;;;;;;1.30;0.50;;;20.60;1.00;;;;;;4898564;29;20458;-74
2023/08/08 12:42:32;;;;;;;2.60;0.30;;;20.60;1.00;;;;;;4880164;29;21047;-72
2023/08/08 12:45:00;;;;;;;1.13;0.47;;;20.60;1.00;;;;;;4898810;29;20454;-75
2023/08/08 12:47:29;;;;;;;3.80;0.80;;;20.80;1.00;;;;;;4899364;29;20932;-74
2023/08/08 12:49:57;;;;;;;2.50;0.40;;;20.80;1.00;;;;;;4899056;29;20458;-76
2023/08/08 12:52:26;;;;;;;0.90;0.33;;;20.70;1.00;;;;;;4899924;29;20502;-73
2023/08/08 12:54:54;;;;;;;0.80;0.70;;;20.60;1.00;;;;;;4899542;29;20466;-75
2023/08/08 12:57:22;;;;;;;1.17;0.30;;;20.60;1.00;;;;;;4899437;29;20570;-75
2023/08/08 12:59:50;;;;;;;0.60;0.20;;;20.70;1.00;;;;;;4899834;29;20526;-76
2023/08/08 13:02:18;;;;;;;0.60;0.10;;;20.70;1.00;;;;;;4898842;29;20554;-75
2023/08/08 13:04:46;;;;;;;0.87;0.53;;;20.80;1.00;;;;;;4899121;29;20538;-73
2023/08/08 13:07:14;;;;;;;1.00;0.40;;;20.80;1.00;;;;;;4898130;29;20521;-73
2023/08/08 13:09:43;;;;;;;0.60;0.10;;;20.80;1.00;;;;;;4899488;29;20458;-75
2023/08/08 13:12:11;;;;;;;0.70;0.30;;;20.80;1.00;;;;;;4897980;29;20568;-74
2023/08/08 13:14:39;;;;;;;0.70;0.30;;;20.70;1.00;;;;;;4899321;29;20549;-73
2023/08/08 13:17:07;;;;;;;0.70;0.40;;;20.70;1.00;;;;;;4899109;29;20487;-74
2023/08/08 13:19:36;;;;;;;0.70;0.37;;;20.80;1.00;;;;;;4898826;29;20461;-73
2023/08/08 13:22:04;;;;;;;0.90;0.40;;;20.80;1.00;;;;;;4898736;29;20479;-74
2023/08/08 13:24:32;;;;;;;1.00;0.37;;;20.70;1.00;;;;;;4898924;29;20445;-73
2023/08/08 13:27:02;;;;;;;0.70;0.43;;;20.60;1.00;;;;;;4898273;29;20455;-73
2023/08/08 13:29:30;;;;;;;0.80;0.60;;;20.60;1.00;;;;;;4898381;29;20497;-74
2023/08/08 13:31:58;;;;;;;0.60;0.40;;;20.40;1.00;;;;;;4898507;29;20468;-73
2023/08/08 13:34:26;;;;;;;2.00;0.67;;;20.20;1.00;;;;;;4897388;29;20454;-72
2023/08/08 13:36:54;;;;;;;0.60;0.20;;;20.30;1.00;;;;;;4897670;29;20529;-73
2023/08/08 13:39:22;;;;;;;0.70;0.33;;;20.30;1.00;;;;;;4900307;29;20510;-72
2023/08/08 13:41:50;;;;;;;1.20;0.70;;;20.30;1.00;;;;;;4899957;29;20463;-75
2023/08/08 13:44:19;;;;;;;0.60;0.10;;;20.40;1.00;;;;;;4905605;29;20556;-74
2023/08/08 13:46:47;;;;;;;0.60;0.10;;;;;;;;;;4901821;29;20447;-74
2023/08/08 13:49:15;;;;;;;0.70;0.30;;;20.60;1.00;;;;;;4900414;29;20454;-72
2023/08/08 13:51:43;;;;;;;0.60;0.20;;;20.70;1.00;;;;;;4898119;29;20533;-73
2023/08/08 13:54:14;;;;;;;4.60;1.40;;;20.70;1.00;;;;;;4899468;29;20446;-76
2023/08/08 13:56:42;;;;;;;1.40;0.50;;;20.70;1.00;;;;;;4897539;29;20446;-73
2023/08/08 13:59:10;;;;;;;0.70;0.40;;;20.80;1.00;;;;;;4898104;29;20546;-73
2023/08/08 14:01:39;;;;;;;0.80;0.47;;;20.70;1.00;;;;;;4896533;29;20965;-74
2023/08/08 14:04:07;;;;;;;0.60;0.30;;;20.60;1.00;;;;;;4897434;29;20546;-73
2023/08/08 14:06:35;;;;;;;0.60;0.10;;;20.80;1.00;;;;;;4896754;29;20446;-75
2023/08/08 14:09:03;;;;;;;0.80;0.50;;;20.90;1.00;;;;;;4896923;29;20442;-75
2023/08/08 14:11:31;;;;;;;0.60;0.20;;;20.70;1.00;;;;;;4897139;29;20463;-75
2023/08/08 14:13:59;;;;;;;2.20;0.20;;;20.70;1.00;;;;;;4896982;29;20475;-75
2023/08/08 14:16:27;;;;;;;0.60;0.20;;;20.50;1.00;;;;;;4896445;29;20489;-74
2023/08/08 14:18:56;;;;;;;0.60;0.20;;;20.50;1.00;;;;;;4897422;29;20481;-73
2023/08/08 14:21:24;;;;;;;1.10;0.53;;;20.50;1.00;;;;;;4899042;29;20505;-75
2023/08/08 14:23:52;;;;;;;0.60;0.20;;;;;;;;;;4896862;29;20824;-73
2023/08/08 14:26:20;;;;;;;0.60;0.20;;;20.40;1.00;;;;;;4897504;29;20959;-73
2023/08/08 14:28:48;;;;;;;1.07;0.50;;;20.50;1.00;;;;;;4898445;29;20456;-75
2023/08/08 14:31:16;;;;;;;1.70;1.60;;;20.50;1.00;;;;;;4897078;29;20564;-76
2023/08/08 14:33:44;;;;;;;0.60;0.10;;;;;;;;;;4898637;29;20533;-73
2023/08/08 14:36:13;;;;;;;1.20;1.10;;;20.60;1.00;;;;;;4896972;29;20465;-73
2023/08/08 14:38:42;;;;;;;0.60;0.10;;;20.70;1.00;;;;;;4898390;29;20485;-74
2023/08/08 14:41:10;;;;;;;0.60;0.10;;;20.60;1.00;;;;;;4897702;29;20538;-75
2023/08/08 14:43:38;;;;;;;0.60;0.10;;;;;;;;;;4898092;29;20533;-76
2023/08/08 14:46:06;;;;;;;0.60;0.10;;;20.90;1.00;;;;;;4897475;29;20454;-75
2023/08/08 14:48:35;;;;;;;1.40;0.57;;;;;;;;;;4897749;29;20824;-75
2023/08/08 14:51:03;;;;;;;0.60;0.20;;;20.70;1.00;;;;;;4897617;29;20975;-74
2023/08/08 14:53:32;;;;;;;0.60;0.20;;;20.60;1.00;;;;;;4897644;29;20816;-75
2023/08/08 14:56:00;;;;;;;0.60;0.10;;;20.60;1.00;;;;;;4897163;29;20546;-75
2023/08/08 14:58:28;;;;;;;0.60;0.10;;;20.60;1.00;;;;;;4897130;29;20517;-76
2023/08/08 15:00:56;;;;;;;0.83;0.30;;;20.40;1.00;;;;;;4899923;29;20577;-73
2023/08/08 15:03:24;;;;;;;0.60;0.10;;;20.40;1.00;;;;;;4900769;29;20450;-72
2023/08/08 15:05:52;;;;;;;0.60;0.20;;;20.40;1.00;;;;;;4898626;29;20450;-73
2023/08/08 15:08:21;;;;;;;0.70;0.30;;;20.40;1.00;;;;;;4897475;29;20908;-75
2023/08/08 15:10:50;;;;;;;0.80;0.23;;;20.40;1.00;;;;;;4897345;29;21033;-76
2023/08/08 15:13:18;;;;;;;0.80;0.40;;;;;;;;;;4896904;29;20491;-75
2023/08/08 15:15:46;;;;;;;1.33;0.50;;;20.20;1.00;;;;;;4897433;29;21022;-74
2023/08/08 15:18:14;;;;;;;0.90;0.47;;;20.20;1.00;;;;;;4898108;29;20490;-73
2023/08/08 15:20:42;;;;;;;0.60;0.13;;;20.10;1.00;;;;;;4896897;29;20493;-75
2023/08/08 15:23:11;;;;;;;0.80;0.40;;;20.10;1.00;;;;;;4896451;29;20437;-74
2023/08/08 15:25:38;;;;;;;0.60;0.20;;;20.20;1.00;;;;;;4896503;29;20484;-74
2023/08/08 15:28:08;;;;;;;3.10;0.60;;;20.20;1.00;;;;;;4896444;29;20541;-74
2023/08/08 15:30:38;;;;;;;2.30;0.83;;;20.10;1.00;;;;;;4896072;29;20978;-72
2023/08/08 15:33:05;;;;;;;0.60;0.10;;;20.10;1.00;;;;;;4896650;29;20551;-76
2023/08/08 15:35:34;;;;;;;0.60;0.23;;;20.20;1.00;;;;;;4896269;29;21108;-73
2023/08/08 15:38:02;;;;;;;0.70;0.30;;;20.20;1.00;;;;;;4896613;29;20493;-73
2023/08/08 15:40:30;;;;;;;0.60;0.20;;;20.30;1.00;;;;;;4896206;29;20529;-74
2023/08/08 15:42:58;;;;;;;0.70;0.40;;;20.20;1.00;;;;;;4896789;29;20482;-74
2023/08/08 15:45:27;;;;;;;0.60;0.20;;;20.20;1.00;;;;;;4896178;29;20952;-76
2023/08/08 15:47:55;;;;;;;0.70;0.40;;;20.10;1.00;;;;;;4896720;29;20562;-74
2023/08/08 15:50:23;;;;;;;0.60;0.20;;;20.20;1.00;;;;;;4896736;29;20502;-72
2023/08/08 15:52:54;;;;;;;0.60;0.10;;;20.20;1.00;;;;;;4896663;29;20514;-73
2023/08/08 15:55:22;;;;;;;0.60;0.13;;;20.20;1.00;;;;;;4896130;29;20450;-74
2023/08/08 15:57:50;;;;;;;1.53;1.23;;;20.30;1.00;;;;;;4896094;29;20553;-74
2023/08/08 16:00:18;;;;;;;0.60;0.10;;;20.30;1.00;;;;;;4896369;29;20482;-75
2023/08/08 16:02:48;;;;;;;0.60;0.20;;;20.30;1.00;;;;;;4896255;29;20451;-76
2023/08/08 16:05:16;;;;;;;0.87;0.37;;;20.30;1.00;;;;;;4895926;29;20485;-75
2023/08/08 16:07:44;;;;;;;0.60;0.10;;;20.50;1.00;;;;;;4896283;29;20827;-73
2023/08/08 16:10:12;;;;;;;0.60;0.30;;;20.80;1.00;;;;;;4896309;29;20820;-74
2023/08/08 16:12:40;;;;;;;0.60;0.20;;;21.00;1.00;;;;;;4896046;29;20790;-74
2023/08/08 16:15:08;;;;;;;0.60;0.20;;;21.00;1.00;;;;;;4899341;29;20539;-75
2023/08/08 16:17:36;;;;;;;0.70;0.30;;;20.90;1.00;;;;;;4899761;29;20458;-74
2023/08/08 16:20:07;;;;;;;0.70;0.30;;;21.00;1.00;;;;;;4900278;29;20551;-72
2023/08/08 16:22:35;;;;;;;0.60;0.30;;;20.90;1.00;;;;;;4903694;29;20570;-73
2023/08/08 16:25:03;;;;;;;0.70;0.40;;;20.90;1.00;;;;;;4904585;29;20462;-75
2023/08/08 16:27:31;;;;;;;0.60;0.20;;;20.70;1.00;;;;;;4904478;29;20486;-74
2023/08/08 16:29:59;;;;;;;1.07;0.67;;;20.70;1.00;;;;;;4904861;29;20471;-74
2023/08/08 16:32:28;;;;;;;1.30;0.50;;;;;;;;;;4905561;29;20535;-74
2023/08/08 16:34:56;;;;;;;1.53;1.00;;;20.50;1.00;;;;;;4904378;29;20831;-75
2023/08/08 16:37:25;;;;;;;0.90;0.60;;;20.40;1.00;;;;;;4900352;29;20543;-75
2023/08/08 16:39:55;;;;;;;0.60;0.10;;;20.20;1.00;;;;;;4899281;29;20481;-76
2023/08/08 16:42:23;;;;;;;0.60;0.27;;;20.20;1.00;;;;;;4899235;29;20474;-76
2023/08/08 16:44:51;;;;;;;1.97;1.27;;;20.20;1.00;;;;;;4881986;29;20454;-75
2023/08/08 16:47:19;;;;;;;1.33;0.70;;;20.30;1.00;;;;;;4880358;29;20552;-75
2023/08/08 16:49:46;;;;;;;1.67;1.53;;;20.30;1.00;;;;;;4880823;29;20535;-75
2023/08/08 16:52:14;;;;;;;0.60;0.10;;;20.20;1.00;;;;;;4881124;29;20502;-74
2023/08/08 16:54:44;;;;;;;0.60;0.10;;;20.30;1.00;;;;;;4881605;29;20486;-75
2023/08/08 16:57:11;;;;;;;0.60;0.10;;;20.20;1.00;;;;;;4881616;29;20454;-76
2023/08/08 16:59:39;;;;;;;0.70;0.37;;;20.20;1.00;;;;;;4880579;29;20510;-76
2023/08/08 17:02:08;;;;;;;0.80;0.37;;;;;;;;;;4880078;29;20497;-75